createdAt,value
2019-04-30T00:00:18.208Z,98803.27
2019-04-30T00:03:11.599Z,98793.23
2019-04-30T00:05:37.250Z,98800.20
2019-04-30T00:08:05.473Z,98803.67
2019-04-30T00:10:36.986Z,98802.34
2019-04-30T00:13:01.171Z,98793.66
2019-04-30T00:15:27.952Z,98793.64
2019-04-30T00:18:00.286Z,98792.75
2019-04-30T00:20:23.020Z,98794.05
2019-04-30T00:22:50.496Z,98789.25
2019-04-30T00:25:19.650Z,98779.68
2019-04-30T00:27:48.058Z,98785.73
2019-04-30T00:30:15.473Z,98787.48
2019-04-30T00:32:43.831Z,98785.28
2019-04-30T00:35:11.907Z,98782.67
2019-04-30T00:37:39.704Z,98776.16
2019-04-30T00:40:06.398Z,98778.80
2019-04-30T00:42:33.000Z,98781.80
2019-04-30T00:45:03.965Z,98779.61
2019-04-30T00:47:28.097Z,98783.05
2019-04-30T00:49:57.539Z,98779.11
2019-04-30T00:52:25.200Z,98775.60
2019-04-30T00:54:51.745Z,98777.73
2019-04-30T00:57:18.525Z,98776.43
2019-04-30T00:59:47.950Z,98779.03
2019-04-30T01:02:40.193Z,98775.13
2019-04-30T01:05:11.652Z,98776.44
2019-04-30T01:07:39.573Z,98779.47
2019-04-30T01:10:07.656Z,98777.27
2019-04-30T01:12:41.060Z,98785.03
2019-04-30T01:15:06.446Z,98785.41
2019-04-30T01:17:31.683Z,98777.56
2019-04-30T01:19:59.235Z,98779.24
2019-04-30T01:22:31.126Z,98785.80
2019-04-30T01:24:55.194Z,98778.85
2019-04-30T01:27:22.001Z,98784.02
2019-04-30T01:29:48.842Z,98774.03
2019-04-30T01:32:19.676Z,98778.75
2019-04-30T01:34:50.063Z,98772.19
2019-04-30T01:37:13.083Z,98768.23
2019-04-30T01:39:39.618Z,98769.47
2019-04-30T01:42:07.959Z,98766.37
2019-04-30T01:44:34.563Z,98763.78
2019-04-30T01:47:01.044Z,98762.55
2019-04-30T01:49:28.959Z,98762.48
2019-04-30T01:51:57.356Z,98766.31
2019-04-30T01:54:24.739Z,98765.82
2019-04-30T01:57:05.899Z,98770.52
2019-04-30T01:59:54.908Z,98762.72
2019-04-30T02:02:23.364Z,98759.67
2019-04-30T02:04:50.175Z,98764.89
2019-04-30T02:07:16.699Z,98762.72
2019-04-30T02:09:43.174Z,98769.63
2019-04-30T02:12:09.808Z,98778.81
2019-04-30T02:14:36.407Z,98774.12
2019-04-30T02:17:02.989Z,98774.61
2019-04-30T02:19:32.404Z,98767.23
2019-04-30T02:22:01.284Z,98760.68
2019-04-30T02:24:28.849Z,98761.91
2019-04-30T02:26:55.385Z,98756.64
2019-04-30T02:29:21.950Z,98759.54
2019-04-30T02:31:50.328Z,98759.45
2019-04-30T02:34:23.892Z,98765.44
2019-04-30T02:36:59.143Z,98766.28
2019-04-30T02:39:25.151Z,98763.18
2019-04-30T02:41:52.170Z,98765.33
2019-04-30T02:44:19.755Z,98765.27
2019-04-30T02:46:50.466Z,98762.67
2019-04-30T02:49:20.172Z,98758.84
2019-04-30T02:51:46.496Z,98762.77
2019-04-30T02:54:20.202Z,98759.78
2019-04-30T02:57:05.950Z,98767.59
2019-04-30T02:59:32.524Z,98762.83
2019-04-30T03:01:59.827Z,98766.28
2019-04-30T03:04:26.519Z,98764.92
2019-04-30T03:06:55.117Z,98770.05
2019-04-30T03:09:21.652Z,98771.33
2019-04-30T03:11:49.860Z,98764.39
2019-04-30T03:14:36.551Z,98770.38
2019-04-30T03:17:20.925Z,98773.39
2019-04-30T03:19:52.414Z,98772.45
2019-04-30T03:22:21.260Z,98775.88
2019-04-30T03:24:50.159Z,98777.95
2019-04-30T03:27:16.861Z,98783.05
2019-04-30T03:29:43.350Z,98777.36
2019-04-30T03:32:13.425Z,98779.42
2019-04-30T03:34:42.064Z,98778.09
2019-04-30T03:37:09.716Z,98786.22
2019-04-30T03:39:35.488Z,98786.56
2019-04-30T03:42:02.068Z,98784.80
2019-04-30T03:44:31.733Z,98780.47
2019-04-30T03:46:59.365Z,98784.28
2019-04-30T03:49:25.610Z,98785.52
2019-04-30T03:51:52.209Z,98785.02
2019-04-30T03:54:19.483Z,98777.16
2019-04-30T03:56:46.319Z,98788.79
2019-04-30T03:59:12.853Z,98794.41
2019-04-30T04:02:04.962Z,98790.92
2019-04-30T04:05:01.131Z,98791.84
2019-04-30T04:07:42.403Z,98801.78
2019-04-30T04:10:19.536Z,98794.48
2019-04-30T04:12:46.352Z,98796.20
2019-04-30T04:15:13.094Z,98800.12
2019-04-30T04:17:39.926Z,98797.11
2019-04-30T04:20:06.957Z,98799.72
2019-04-30T04:22:33.877Z,98801.44
2019-04-30T04:25:00.762Z,98802.30
2019-04-30T04:27:29.829Z,98807.05
2019-04-30T04:29:57.020Z,98804.48
2019-04-30T04:32:24.219Z,98806.27
2019-04-30T04:34:51.381Z,98807.20
2019-04-30T04:37:20.345Z,98805.14
2019-04-30T04:39:50.113Z,98812.17
2019-04-30T04:42:16.189Z,98814.06
2019-04-30T04:44:42.764Z,98818.52
2019-04-30T04:47:09.921Z,98813.46
2019-04-30T04:49:39.785Z,98811.48
2019-04-30T04:52:06.444Z,98817.28
2019-04-30T04:54:33.084Z,98805.27
2019-04-30T04:57:13.992Z,98816.70
2019-04-30T04:59:42.470Z,98813.80
2019-04-30T05:02:32.666Z,98817.85
2019-04-30T05:05:00.044Z,98824.06
2019-04-30T05:07:28.523Z,98820.74
2019-04-30T05:09:55.094Z,98828.66
2019-04-30T05:12:21.781Z,98823.52
2019-04-30T05:14:48.468Z,98821.45
2019-04-30T05:17:15.224Z,98824.16
2019-04-30T05:19:44.280Z,98820.77
2019-04-30T05:22:10.911Z,98820.88
2019-04-30T05:24:38.428Z,98826.58
2019-04-30T05:27:05.948Z,98827.50
2019-04-30T05:29:32.569Z,98830.15
2019-04-30T05:31:59.138Z,98825.39
2019-04-30T05:34:25.672Z,98833.67
2019-04-30T05:36:52.458Z,98829.77
2019-04-30T05:39:18.991Z,98832.41
2019-04-30T05:41:49.052Z,98832.84
2019-04-30T05:44:15.368Z,98828.48
2019-04-30T05:46:41.934Z,98833.70
2019-04-30T05:49:09.034Z,98836.28
2019-04-30T05:51:35.682Z,98830.13
2019-04-30T05:54:02.274Z,98833.55
2019-04-30T05:56:30.533Z,98831.77
2019-04-30T05:58:59.236Z,98838.22
2019-04-30T06:01:25.902Z,98833.34
2019-04-30T06:03:52.503Z,98838.62
2019-04-30T06:06:19.456Z,98836.82
2019-04-30T06:09:06.683Z,98833.31
2019-04-30T06:12:11.268Z,98838.95
2019-04-30T06:14:48.877Z,98839.78
2019-04-30T06:17:15.589Z,98844.92
2019-04-30T06:19:42.774Z,98837.81
2019-04-30T06:22:10.971Z,98839.36
2019-04-30T06:24:39.535Z,98842.25
2019-04-30T06:27:06.332Z,98847.36
2019-04-30T06:29:33.301Z,98853.17
2019-04-30T06:32:01.766Z,98849.96
2019-04-30T06:34:29.500Z,98857.17
2019-04-30T06:36:57.102Z,98857.58
2019-04-30T06:39:24.504Z,98859.23
2019-04-30T06:42:21.744Z,98855.81
2019-04-30T06:44:49.432Z,98851.18
2019-04-30T06:47:16.481Z,98853.52
2019-04-30T06:49:43.324Z,98850.58
2019-04-30T06:52:20.289Z,98853.34
2019-04-30T06:54:39.714Z,98862.36
2019-04-30T06:57:09.768Z,98855.03
2019-04-30T06:59:37.123Z,98856.05
2019-04-30T07:02:05.971Z,98854.90
2019-04-30T07:04:32.513Z,98845.37
2019-04-30T07:06:59.099Z,98855.70
2019-04-30T07:09:49.880Z,98853.29
2019-04-30T07:12:29.841Z,98856.51
2019-04-30T07:14:55.389Z,98846.72
2019-04-30T07:17:22.012Z,98847.06
2019-04-30T07:19:55.724Z,98846.42
2019-04-30T07:22:19.159Z,98856.85
2019-04-30T07:24:46.498Z,98863.28
2019-04-30T07:27:13.029Z,98854.91
2019-04-30T07:29:39.583Z,98846.86
2019-04-30T07:32:06.258Z,98850.27
2019-04-30T07:34:36.987Z,98851.54
2019-04-30T07:37:11.828Z,98847.77
2019-04-30T07:39:33.375Z,98849.53
2019-04-30T07:41:59.913Z,98856.16
2019-04-30T07:44:33.787Z,98857.77
2019-04-30T07:46:55.689Z,98861.67
2019-04-30T07:49:22.203Z,98851.76
2019-04-30T07:51:51.639Z,98853.62
2019-04-30T07:54:18.984Z,98857.34
2019-04-30T07:56:45.779Z,98857.08
2019-04-30T07:59:12.417Z,98853.59
2019-04-30T08:02:00.010Z,98851.30
2019-04-30T08:04:29.095Z,98849.75
2019-04-30T08:06:59.703Z,98852.47
2019-04-30T08:09:26.553Z,98852.30
2019-04-30T08:11:53.061Z,98852.39
2019-04-30T08:14:21.137Z,98856.70
2019-04-30T08:16:48.439Z,98856.75
2019-04-30T08:19:16.462Z,98856.31
2019-04-30T08:21:45.332Z,98858.05
2019-04-30T08:24:11.876Z,98866.91
2019-04-30T08:26:39.741Z,98862.42
2019-04-30T08:29:06.627Z,98867.73
2019-04-30T08:31:33.455Z,98869.91
2019-04-30T08:34:00.389Z,98870.19
2019-04-30T08:36:29.799Z,98871.49
2019-04-30T08:38:59.649Z,98876.57
2019-04-30T08:41:26.501Z,98870.41
2019-04-30T08:43:53.088Z,98869.92
2019-04-30T08:46:19.735Z,98873.89
2019-04-30T08:48:51.614Z,98865.56
2019-04-30T08:51:15.225Z,98870.12
2019-04-30T08:53:41.987Z,98872.20
2019-04-30T08:56:10.091Z,98876.94
2019-04-30T08:58:38.946Z,98871.19
2019-04-30T09:01:05.546Z,98869.41
2019-04-30T09:03:32.491Z,98862.53
2019-04-30T09:06:19.628Z,98864.23
2019-04-30T09:08:49.031Z,98867.77
2019-04-30T09:11:27.123Z,98871.95
2019-04-30T09:13:44.249Z,98867.06
2019-04-30T09:16:11.035Z,98860.15
2019-04-30T09:18:39.349Z,98861.21
2019-04-30T09:21:06.574Z,98861.21
2019-04-30T09:23:43.918Z,98862.61
2019-04-30T09:26:02.481Z,98873.08
2019-04-30T09:28:29.500Z,98873.11
2019-04-30T09:30:56.332Z,98872.42
2019-04-30T09:33:22.899Z,98862.27
2019-04-30T09:35:49.672Z,98870.47
2019-04-30T09:38:16.239Z,98865.13
2019-04-30T09:40:42.806Z,98857.44
2019-04-30T09:43:09.395Z,98850.98
2019-04-30T09:45:36.241Z,98850.98
2019-04-30T09:48:03.170Z,98853.34
2019-04-30T09:50:30.550Z,98855.63
2019-04-30T09:52:57.922Z,98846.33
2019-04-30T09:55:25.672Z,98847.25
2019-04-30T09:57:52.273Z,98845.34
2019-04-30T10:00:19.454Z,98847.69
2019-04-30T10:02:46.508Z,98830.89
2019-04-30T10:05:14.514Z,98830.64
2019-04-30T10:07:41.807Z,98823.76
2019-04-30T10:10:11.402Z,98833.69
2019-04-30T10:12:39.228Z,98829.73
2019-04-30T10:15:09.146Z,98829.73
2019-04-30T10:17:40.511Z,98830.46
2019-04-30T10:20:11.806Z,98828.55
2019-04-30T10:22:40.111Z,98818.77
2019-04-30T10:25:09.147Z,98822.73
2019-04-30T10:27:35.902Z,98816.97
2019-04-30T10:30:03.701Z,98827.09
2019-04-30T10:32:30.591Z,98822.55
2019-04-30T10:34:57.258Z,98825.11
2019-04-30T10:37:23.977Z,98822.04
2019-04-30T10:39:50.911Z,98825.45
2019-04-30T10:42:17.415Z,98823.33
2019-04-30T10:44:43.947Z,98812.75
2019-04-30T10:47:10.876Z,98807.45
2019-04-30T10:49:38.975Z,98804.22
2019-04-30T10:52:09.343Z,98805.85
2019-04-30T10:54:36.156Z,98803.66
2019-04-30T10:57:02.889Z,98805.36
2019-04-30T10:59:29.828Z,98798.59
2019-04-30T11:01:56.771Z,98799.69
2019-04-30T11:04:23.319Z,98794.22
2019-04-30T11:06:50.054Z,98799.13
2019-04-30T11:09:16.744Z,98793.94
2019-04-30T11:11:43.383Z,98790.64
2019-04-30T11:14:09.992Z,98791.31
2019-04-30T11:16:36.693Z,98799.30
2019-04-30T11:19:04.235Z,98785.00
2019-04-30T11:21:31.071Z,98789.88
2019-04-30T11:23:59.433Z,98788.13
2019-04-30T11:26:30.787Z,98781.45
2019-04-30T11:28:56.128Z,98774.26
2019-04-30T11:31:41.576Z,98769.38
2019-04-30T11:34:08.375Z,98771.97
2019-04-30T11:36:38.884Z,98771.70
2019-04-30T11:39:10.910Z,98767.30
2019-04-30T11:41:39.547Z,98766.83
2019-04-30T11:44:06.185Z,98762.41
2019-04-30T11:47:24.694Z,98768.38
2019-04-30T11:49:51.277Z,98759.72
2019-04-30T11:52:20.053Z,98756.39
2019-04-30T11:54:51.535Z,98745.61
2019-04-30T11:57:15.056Z,98748.02
2019-04-30T11:59:45.626Z,98749.58
2019-04-30T12:02:26.199Z,98744.20
2019-04-30T12:04:52.836Z,98742.61
2019-04-30T12:07:26.385Z,98740.03
2019-04-30T12:10:00.907Z,98729.92
2019-04-30T12:12:28.943Z,98736.70
2019-04-30T12:14:55.649Z,98726.13
2019-04-30T12:17:22.299Z,98724.21
2019-04-30T12:19:49.891Z,98726.05
2019-04-30T12:22:20.004Z,98721.55
2019-04-30T12:24:45.153Z,98713.80
2019-04-30T12:27:12.276Z,98710.49
2019-04-30T12:29:39.776Z,98712.97
2019-04-30T12:32:06.412Z,98708.80
2019-04-30T12:34:33.143Z,98714.81
2019-04-30T12:36:59.726Z,98710.33
2019-04-30T12:39:26.293Z,98715.31
2019-04-30T12:41:53.130Z,98700.55
2019-04-30T12:44:19.716Z,98709.16
2019-04-30T12:46:48.531Z,98701.20
2019-04-30T12:49:15.196Z,98698.69
2019-04-30T12:51:58.636Z,98701.44
2019-04-30T12:54:53.907Z,98696.00
2019-04-30T12:57:26.327Z,98696.95
2019-04-30T12:59:53.075Z,98693.97
2019-04-30T13:02:19.839Z,98682.54
2019-04-30T13:04:46.426Z,98684.84
2019-04-30T13:07:13.907Z,98683.65
2019-04-30T13:09:41.533Z,98683.78
2019-04-30T13:12:10.369Z,98676.73
2019-04-30T13:14:51.031Z,98671.45
2019-04-30T13:17:07.344Z,98677.27
2019-04-30T13:19:34.074Z,98680.13
2019-04-30T13:22:00.992Z,98675.14
2019-04-30T13:24:31.085Z,98661.61
2019-04-30T13:26:56.095Z,98657.70
2019-04-30T13:29:30.411Z,98658.27
2019-04-30T13:31:58.587Z,98657.09
2019-04-30T13:34:54.096Z,98651.05
2019-04-30T13:37:20.721Z,98642.91
2019-04-30T13:40:03.044Z,98648.22
2019-04-30T13:42:33.663Z,98643.44
2019-04-30T13:45:00.207Z,98640.84
2019-04-30T13:47:29.140Z,98636.81
2019-04-30T13:49:55.366Z,98635.25
2019-04-30T13:52:22.101Z,98627.83
2019-04-30T13:54:49.060Z,98636.50
2019-04-30T13:57:15.656Z,98629.73
2019-04-30T13:59:44.555Z,98629.63
2019-04-30T14:02:11.308Z,98634.71
2019-04-30T14:05:00.784Z,98638.08
2019-04-30T14:07:53.156Z,98634.31
2019-04-30T14:10:19.836Z,98640.80
2019-04-30T14:12:53.637Z,98634.19
2019-04-30T14:15:20.489Z,98643.23
2019-04-30T14:17:47.156Z,98634.97
2019-04-30T14:20:13.841Z,98629.31
2019-04-30T14:22:40.358Z,98635.05
2019-04-30T14:25:07.168Z,98634.23
2019-04-30T14:27:33.693Z,98636.19
2019-04-30T14:30:00.334Z,98631.27
2019-04-30T14:32:28.502Z,98620.61
2019-04-30T14:34:55.234Z,98623.30
2019-04-30T14:37:21.918Z,98627.58
2019-04-30T14:39:49.070Z,98625.78
2019-04-30T14:42:17.756Z,98619.25
2019-04-30T14:44:45.764Z,98610.64
2019-04-30T14:47:29.836Z,98617.56
2019-04-30T14:50:12.770Z,98620.08
2019-04-30T14:52:46.817Z,98613.28
2019-04-30T14:55:34.513Z,98622.08
2019-04-30T14:58:20.993Z,98613.66
2019-04-30T15:00:59.236Z,98614.24
2019-04-30T15:03:26.554Z,98614.02
2019-04-30T15:05:53.257Z,98607.86
2019-04-30T15:08:19.812Z,98611.98
2019-04-30T15:10:46.486Z,98618.62
2019-04-30T15:13:13.073Z,98611.75
2019-04-30T15:15:39.736Z,98608.55
2019-04-30T15:18:06.906Z,98611.52
2019-04-30T15:20:33.568Z,98609.76
2019-04-30T15:23:21.250Z,98606.73
2019-04-30T15:25:48.640Z,98607.73
2019-04-30T15:28:15.297Z,98607.73
2019-04-30T15:30:42.190Z,98607.20
2019-04-30T15:33:17.425Z,98608.80
2019-04-30T15:35:44.390Z,98597.98
2019-04-30T15:38:11.033Z,98602.78
2019-04-30T15:40:38.767Z,98596.63
2019-04-30T15:43:06.125Z,98602.55
2019-04-30T15:45:32.719Z,98599.39
2019-04-30T15:47:59.415Z,98600.09
2019-04-30T15:50:26.316Z,98597.83
2019-04-30T15:52:53.449Z,98602.28
2019-04-30T15:55:20.318Z,98598.30
2019-04-30T15:57:59.333Z,98608.75
2019-04-30T16:00:29.243Z,98598.48
2019-04-30T16:03:02.102Z,98592.09
2019-04-30T16:05:43.123Z,98595.64
2019-04-30T16:08:23.374Z,98595.98
2019-04-30T16:11:19.510Z,98588.88
2019-04-30T16:14:18.584Z,98596.23
2019-04-30T16:17:14.546Z,98589.28
2019-04-30T16:19:49.979Z,98588.95
2019-04-30T16:22:23.529Z,98589.05
2019-04-30T16:24:50.075Z,98589.66
2019-04-30T16:27:16.688Z,98582.95
2019-04-30T16:29:43.527Z,98586.59
2019-04-30T16:32:10.147Z,98589.13
2019-04-30T16:34:38.715Z,98584.80
2019-04-30T16:37:05.597Z,98584.95
2019-04-30T16:39:32.318Z,98590.16
2019-04-30T16:41:59.263Z,98589.38
2019-04-30T16:44:25.863Z,98580.60
2019-04-30T16:46:52.507Z,98580.09
2019-04-30T16:49:21.224Z,98574.40
2019-04-30T16:51:47.874Z,98579.84
2019-04-30T16:54:16.215Z,98577.32
2019-04-30T16:56:42.727Z,98580.59
2019-04-30T16:59:11.226Z,98573.08
2019-04-30T17:01:37.937Z,98574.70
2019-04-30T17:04:11.899Z,98570.72
2019-04-30T17:06:41.748Z,98573.91
2019-04-30T17:09:17.600Z,98570.30
2019-04-30T17:12:04.714Z,98575.31
2019-04-30T17:14:32.014Z,98569.47
2019-04-30T17:16:59.727Z,98569.47
2019-04-30T17:19:31.701Z,98573.69
2019-04-30T17:21:58.385Z,98573.69
2019-04-30T17:24:24.931Z,98578.84
2019-04-30T17:26:51.570Z,98566.67
2019-04-30T17:29:19.490Z,98571.75
2019-04-30T17:31:46.011Z,98573.28
2019-04-30T17:34:12.530Z,98575.38
2019-04-30T17:36:39.663Z,98575.22
2019-04-30T17:39:08.157Z,98572.59
2019-04-30T17:41:35.427Z,98571.80
2019-04-30T17:44:01.975Z,98576.07
2019-04-30T17:46:29.112Z,98568.77
2019-04-30T17:48:55.578Z,98572.23
2019-04-30T17:51:22.934Z,98567.14
2019-04-30T18:38:31.155Z,98577.09
2019-04-30T18:40:59.462Z,98585.93
2019-04-30T18:43:26.264Z,98586.24
2019-04-30T18:45:52.891Z,98591.91
2019-04-30T18:48:21.112Z,98590.37
2019-04-30T18:50:49.511Z,98593.52
2019-04-30T18:53:20.941Z,98589.09
2019-04-30T18:55:50.490Z,98594.27
2019-04-30T18:58:16.123Z,98592.78
2019-04-30T19:00:44.694Z,98589.30
2019-04-30T19:03:11.407Z,98596.69
2019-04-30T19:05:39.296Z,98596.11
2019-04-30T19:08:11.811Z,98596.76
2019-04-30T19:10:56.632Z,98605.80
2019-04-30T19:13:53.040Z,98605.95
2019-04-30T19:16:45.367Z,98611.45
2019-04-30T19:19:16.981Z,98609.83
2019-04-30T19:21:43.540Z,98614.00
2019-04-30T19:24:10.148Z,98612.95
2019-04-30T19:26:38.826Z,98614.36
2019-04-30T19:29:07.562Z,98619.25
2019-04-30T19:31:34.451Z,98611.45
2019-04-30T19:34:01.064Z,98618.02
2019-04-30T19:36:35.000Z,98618.25
2019-04-30T19:38:56.255Z,98616.86
2019-04-30T19:41:23.114Z,98620.14
2019-04-30T19:43:50.204Z,98619.07
2019-04-30T19:46:18.747Z,98614.52
2019-04-30T19:48:45.584Z,98617.41
2019-04-30T19:51:12.410Z,98619.33
2019-04-30T19:53:39.552Z,98613.81
2019-04-30T19:56:06.624Z,98616.44
2019-04-30T19:58:47.664Z,98617.16
2019-04-30T20:01:01.560Z,98617.03
2019-04-30T20:03:29.260Z,98623.56
2019-04-30T20:05:56.163Z,98623.82
2019-04-30T20:08:23.878Z,98632.00
2019-04-30T20:10:50.472Z,98634.33
2019-04-30T20:13:30.889Z,98635.01
2019-04-30T20:15:45.737Z,98631.19
2019-04-30T20:18:12.609Z,98639.63
2019-04-30T20:20:41.167Z,98636.24
2019-04-30T20:23:07.847Z,98628.11
2019-04-30T20:25:34.392Z,98635.95
2019-04-30T20:28:01.079Z,98635.91
2019-04-30T20:30:29.206Z,98632.80
2019-04-30T20:32:56.442Z,98634.52
2019-04-30T20:35:23.143Z,98634.03
2019-04-30T20:38:09.408Z,98638.46
2019-04-30T20:40:43.382Z,98627.58
2019-04-30T20:43:05.240Z,98629.39
2019-04-30T20:45:32.000Z,98630.21
2019-04-30T20:47:59.220Z,98630.66
2019-04-30T20:50:26.040Z,98627.99
2019-04-30T20:52:52.504Z,98630.58
2019-04-30T20:55:27.587Z,98625.41
2019-04-30T20:57:54.092Z,98623.60
2019-04-30T21:00:26.683Z,98622.82
2019-04-30T21:02:53.196Z,98624.02
2019-04-30T21:05:19.776Z,98624.95
2019-04-30T21:07:46.246Z,98628.51
2019-04-30T21:10:13.033Z,98625.12
2019-04-30T21:12:39.746Z,98621.67
2019-04-30T21:15:07.276Z,98625.72
2019-04-30T21:17:33.819Z,98625.95
2019-04-30T21:20:01.023Z,98621.64
2019-04-30T21:22:29.481Z,98620.36
2019-04-30T21:24:56.086Z,98619.53
2019-04-30T21:27:22.613Z,98629.98
2019-04-30T21:29:49.403Z,98619.53
2019-04-30T21:32:25.563Z,98624.84
2019-04-30T21:35:03.439Z,98621.39
2019-04-30T21:37:29.993Z,98629.36
2019-04-30T21:39:58.228Z,98618.12
2019-04-30T21:42:25.004Z,98621.58
2019-04-30T21:44:51.530Z,98617.20
2019-04-30T21:47:18.054Z,98616.75
2019-04-30T21:49:45.245Z,98608.44
2019-04-30T21:52:11.749Z,98618.83
2019-04-30T21:54:38.762Z,98610.92
2019-04-30T21:57:06.028Z,98613.52
2019-04-30T21:59:34.942Z,98610.06
2019-04-30T22:02:01.624Z,98607.05
2019-04-30T22:04:28.141Z,98603.19
2019-04-30T22:06:55.042Z,98602.38
2019-04-30T22:09:21.540Z,98606.35
2019-04-30T22:11:49.369Z,98609.42
2019-04-30T22:14:16.064Z,98608.53
2019-04-30T22:16:42.715Z,98608.56
2019-04-30T22:19:09.276Z,98600.34
2019-04-30T22:21:36.221Z,98601.30
2019-04-30T22:24:02.957Z,98600.75
2019-04-30T22:26:29.798Z,98608.20
2019-04-30T22:28:56.258Z,98606.83
2019-04-30T22:31:22.814Z,98606.48
2019-04-30T22:33:49.428Z,98612.97
2019-04-30T22:36:21.972Z,98609.93
2019-04-30T22:39:12.032Z,98604.27
2019-04-30T22:41:39.785Z,98609.93
2019-04-30T22:44:06.324Z,98608.72
2019-04-30T22:46:32.847Z,98608.69
2019-04-30T22:48:59.333Z,98607.38
2019-04-30T22:51:25.960Z,98603.47
2019-04-30T22:53:52.461Z,98603.05
2019-04-30T22:56:19.070Z,98602.28
2019-04-30T22:58:45.782Z,98601.39
2019-04-30T23:01:23.584Z,98598.05
2019-04-30T23:03:52.125Z,98591.50
2019-04-30T23:06:18.669Z,98596.23
2019-04-30T23:08:45.154Z,98598.89
2019-04-30T23:11:11.614Z,98589.80
2019-04-30T23:13:38.174Z,98592.39
2019-04-30T23:16:05.377Z,98594.19
2019-04-30T23:18:32.265Z,98593.73
2019-04-30T23:20:58.935Z,98589.45
2019-04-30T23:23:25.447Z,98587.36
2019-04-30T23:25:52.210Z,98589.17
2019-04-30T23:28:19.108Z,98589.23
2019-04-30T23:30:47.293Z,98589.27
2019-04-30T23:33:13.816Z,98584.52
2019-04-30T23:35:40.626Z,98582.38
2019-04-30T23:38:07.218Z,98591.13
2019-04-30T23:40:49.126Z,98576.42
2019-04-30T23:43:15.881Z,98578.70
2019-04-30T23:45:42.380Z,98576.63
2019-04-30T23:48:08.895Z,98582.37
2019-04-30T23:50:35.465Z,98567.23
2019-04-30T23:53:02.225Z,98581.66
2019-04-30T23:55:29.296Z,98576.05
2019-04-30T23:57:55.817Z,98575.67
